22°C Temp
14°C Dewpoint
61% Humidity
Temperature
5 KM/H
3 MPH
3 KTS
50°
North East

Wind Speed
Clear
Conditions
Pressure 1009.92 (hPa) - 29.82 (in)
Visibility 6.2 (mi) - 10.0 (km)

Current Conditions
LEMG
Location 9(km)
Metar :LEMG 301900Z 05003KT 360V130 CAVOK 22/14 Q1010 NOSIG
Thu 30th June 21:00 pm

Airport
  Metar Aviation API Data Provided by https://www.checkwx.com/ PHP scripts by weather34.com ©2022